EDLW/DTM METAR and TAF weather

Enter ICAO airport designator
Station Type Date Time Source
EDLW METAR 2020/01/22 17:50 UTC NOAA

EDLW 221750Z 22004KT 180V260 3800 BR BKN002 02/02 Q1035


Station Type Date Time Source
EDLW Decoded METAR 2020/01/22 17:50 UTC NOAA

Dortmund / Wickede, Germany (EDLW) 51-31N 007-37E
Jan 22, 2020 - 12:50 PM EST / 2020.01.22 1750 UTC
Wind: from the SW (220 degrees) at 5 MPH (4 KT) (direction variable):0
Visibility: 2 mile(s):0
Sky conditions: mostly cloudy
Weather: mist
Temperature: 35 F (2 C)
Windchill: 30 F (-1 C):1
Dew Point: 35 F (2 C)
Relative Humidity: 100%
Pressure (altimeter): 30.56 in. Hg (1035 hPa)
ob: EDLW 221750Z 22004KT 180V260 3800 BR BKN002 02/02 Q1035
cycle: 18

Station Type Date Time Source
EDLW TAF 2020/01/22 18:30 UTC NOAA

TAF EDLW 221700Z 2218/2318 21004KT 1500 BR BKN003
TEMPO 2218/2311 0400 FG BKN000
BECMG 2310/2313 5000 BKN012

Example: see airport list